Sonora Municipal Airport
KSOA : now visible

Airfield :











YOU CAN JOIN US ON...

 
LOGIN :

Register | Disclaimer

   EN    FR    IT 

 









Legend :    VFR   Marginal VFR   IFR   Intensive IFR   Very Intensive IFR
Visi :
Ceiling :
>= 8 km
>= 3000ft
5 to 8 km
1000 to 3000 ft
1500m to 5 km
500 to 1000 ft
800 to 1500m
200 to 500 ft
< 800m
< 200 ft
Symbols :   Thunderstorms  Fog  Heavy snow  Heavy precipitations  Wind > 20 kt






- Airport Elevation : 2140 ft


KSOA - Sonora Municipal

CURRENT METAR :
  • 021415Z AUTO 00000KT 2SM BR BKN003 OVC010 00/00 A3030 RMK AO2

EXPIRED METARs :
  • 021355Z AUTO 00000KT 2 1/2SM BR SCT004 OVC008 00/M00 A3028 RMK AO2
  • 021335Z AUTO 00000KT 10SM OVC011 00/M00 A3027 RMK AO2
  • 021315Z AUTO 00000KT 10SM OVC009 00/M00 A3027 RMK AO2
  • 021255Z AUTO 36003KT 10SM BKN008 OVC011 00/M00 A3026 RMK AO2
  • 021235Z AUTO 02007KT 10SM OVC010 00/M00 A3023 RMK AO2
  • 021215Z AUTO 36006KT 10SM -UP OVC008 00/M00 A3024 RMK AO2
  • 021155Z AUTO 01007KT 10SM OVC007 00/M00 A3023 RMK AO2
  • 021135Z AUTO 03006KT 10SM OVC007 00/M00 A3023 RMK AO2

TAF KSOA
Valid from the 02 at 13:00 until the 03 at 12:00 UTC


021259Z 0213/0312 36005KT P6SM BKN007 OVC012
TEMPO 0213/0215 -FZRA SCT007 OVC010
FM021800 35005KT P6SM OVC008
FM030200 35003KT P6SM SKC
KZHU FIR / North America



MET'MAP, your aeronautical weather chart ! - Copyright ORBIFLY December 2007 - Disclaimer

ORBIFLY MET'MAP TEAM :

Programming & Development : Alexandra Zaïnal
Original concept : Baudouin d'Aumeries
Technical & hardware support : Manuel Goepfert
Assistance : Marc-Olivier Méhu




SOURCES & CREDITS :

   NOAA       Earth
Advisory